Sonic Adventure (DX): Overall Rankings

Records: Times | Rings | Scores | Races | Bosses | Freestyle
Leaders: Times | Rings | Scores | Races | Bosses | Freestyle | Overall
Rank Player Percent Points Date Grade
1 Sonicspeedruner 98.3% 287 03-28-17 S
2 Gamepro011 98.2% 304 03-28-17 A
3 DarkPolarNight 96.2% 638 03-28-17 A
4 Jawzun 93.5% 1101 03-28-17 A
5 Dashjump 92.1% 1337 03-28-17 A
6 DarkspinesSonic 90.3% 1649 03-28-17 A
7 Avento128bits 90.0% 1700 03-28-17 A
8 ike6252 89.9% 1716 03-28-17 A
9 F-Man 88.0% 2036 03-28-17 A
10 Coolfansonic 87.1% 2179 03-28-17 A
11 HyperSonic7701 84.6% 2602 03-28-17 A
12 TheRealShadnic 83.6% 2788 03-28-17 A
13 yoshifan 82.9% 2900 03-28-17 A
14 frankoredstrato 82.7% 2941 03-28-17 A
15 francisco 81.7% 3098 03-28-17 A
16 Marth 81.4% 3148 03-28-17 A
17 InferSaime 80.1% 3370 03-28-17 A
18 PfoSonic 79.7% 3440 03-28-17 B
19 Paragod 79.3% 3507 03-28-17 B
20 THC98 78.6% 3638 03-28-17 B
21 Stefan 76.1% 4057 03-28-17 B
22 RPGnutter 73.8% 4440 03-28-17 B
23 bertin 73.8% 4454 03-28-17 B
24 sonicam 71.6% 4819 03-28-17 B
25 drminus 70.3% 5037 03-28-17 B
26 xXMegaManXx 70.3% 5043 03-28-17 B
27 Combo 65.7% 5827 03-28-17 B
28 SkyLights 64.5% 6029 03-28-17 B
29 Diamond 62.5% 6368 03-28-17 B
30 Auriman1 60.4% 6717 03-28-17 B
31 GerbilSoft 60.4% 6726 03-28-17 B
32 OmegaDJ 60.4% 6730 03-28-17 B
33 chaos shadow 59.9% 6812 03-28-17 C
34 magnum12 59.5% 6880 03-28-17 C
35 Thorn 57.4% 7242 03-28-17 C
36 P1 Pause 57.1% 7279 03-28-17 C
37 mike89 56.1% 7462 03-28-17 C
38 Dave Cramer 54.1% 7795 03-28-17 C
39 Groudon199 54.1% 7797 03-28-17 C
40 chainchumper 54.1% 7799 03-28-17 C
41 Parax 53.3% 7929 03-28-17 C
42 Shadow Jacky 53.0% 7978 03-28-17 C
43 Psymar 47.8% 8863 03-28-17 C
44 Arch 47.1% 8986 03-28-17 C
45 Chao_Fan 46.2% 9146 03-28-17 C
46 mauserman 45.4% 9269 03-28-17 C
47 Quartz 45.1% 9331 03-28-17 C
48 teamblackarms 44.2% 9474 03-28-17 C
49 Psyknux 43.4% 9611 03-28-17 C
50 James_Bertolli 43.2% 9646 03-28-17 C
51 NintenDan 42.8% 9710 03-28-17 C
52 Webber3000 42.3% 9800 03-28-17 C
53 Turbos 42.2% 9820 03-28-17 C
54 Ring Rush 41.9% 9876 03-28-17 C
55 Cream147 41.7% 9902 03-28-17 C
56 videogamemaster777 41.6% 9921 03-28-17 C
57 Fr3nZy 41.5% 9939 03-28-17 C
58 Siavash Tazari 41.4% 9951 03-28-17 C
59 buddychaos0415 40.9% 10042 03-28-17 C
60 SadisticMystic 40.3% 10149 03-28-17 C
61 eggFL 39.5% 10274 03-28-17 D
62 Redd 38.7% 10409 03-28-17 D
63 SB737 37.9% 10544 03-28-17 D
64 supersonic465 37.2% 10674 03-28-17 D
65 supersonicfan 36.9% 10726 03-28-17 D
66 FuzZerd 35.6% 10942 03-28-17 D
67 Aitamen 35.1% 11018 03-28-17 D
68 elecmouse101 34.8% 11077 03-28-17 D
69 danieldude 34.7% 11101 03-28-17 D
70 Austinf 33.7% 11270 03-28-17 D
71 metanightmare22 33.6% 11288 03-28-17 D
72 Cyan Ryan 33.4% 11322 03-28-17 D
73 dabestgamer 33.1% 11358 03-28-17 D
74 MiStEr_ShAoLiN 33.0% 11385 03-28-17 D
75 Andrea Ritsu 32.2% 11522 03-28-17 D
76 itsPersonnal 31.8% 11581 03-28-17 D
77 BigAL49 31.8% 11583 03-28-17 D
78 Cybrax 31.1% 11709 03-28-17 D
79 SilvertheAlmighty 30.9% 11738 03-28-17 D
80 Nimrod 29.6% 11960 03-28-17 D
81 VMU Player Banned 29.0% 12059 03-28-17 D
82 ethmar 28.7% 12114 03-28-17 D
83 Staf 28.7% 12120 03-28-17 D
84 Omega Rafael Santos 28.5% 12150 03-28-17 D
85 The T 28.2% 12191 03-28-17 D
86 EngiNerd 28.0% 12228 03-28-17 D
87 lordmetalsonic 27.5% 12324 03-28-17 D
88 Hipertails12 27.0% 12401 03-28-17 D
89 welldooder64 26.9% 12420 03-28-17 D
90 GreatStar 26.6% 12464 03-28-17 D
91 The Great Lord Mick 26.6% 12479 03-28-17 D
92 Sondow 26.5% 12494 03-28-17 D
93 Mastakirby 26.3% 12514 03-28-17 D
94 LinksDarkArrows 26.3% 12522 03-28-17 D
95 Skylace 25.3% 12693 03-28-17 D
96 a_moustache 24.3% 12856 03-28-17 D
97 Rolken 23.8% 12944 03-28-17 D
98 Kogen Player Banned 22.1% 13238 03-28-17 D
99 Xia 22.1% 13244 03-28-17 D
100 Spinballwizard 22.0% 13246 03-28-17 D
101 Twilisailor 21.6% 13317 03-28-17 D
102 f0rever_zer0 21.6% 13321 03-28-17 D
103 Don 21.4% 13352 03-28-17 D
104 Cutiefox 21.4% 13357 03-28-17 D
105 Game_Complete 21.3% 13367 03-28-17 D
106 Miles9999 21.3% 13380 03-28-17 D
107 andres430 20.8% 13461 03-28-17 D
108 Cruizer 20.5% 13511 03-28-17 D
109 iSonicKid2K 20.4% 13525 03-28-17 D
110 SADXTryHard 20.2% 13563 03-28-17 D
111 GarnetPrincess 19.7% 13645 03-28-17 E
112 AxlThunder 19.0% 13755 03-28-17 E
113 knuckles_sonic8 18.7% 13822 03-28-17 E
114 KinkyCadence 18.3% 13882 03-28-17 E
115 The Knuckles Chao 18.2% 13892 03-28-17 E
116 Team_Yoshi 18.0% 13935 03-28-17 E
117 Termon 17.9% 13956 03-28-17 E
118 LittleBigness 17.8% 13962 03-28-17 E
119 SonicWinDX 17.7% 13985 03-28-17 E
120 FoxBoy 17.6% 13996 03-28-17 E
121 Drakodan 16.8% 14132 03-28-17 E
122 Sonic Singularity 15.9% 14296 03-28-17 E
123 Pokemonmaster888 15.7% 14330 03-28-17 E
124 SilverSonic 14.5% 14521 03-28-17 E
125 MPit08 14.5% 14536 03-28-17 E
126 WeegeeZV 14.3% 14569 03-28-17 E
127 Mo Player Banned 14.1% 14602 03-28-17 E
128 koinu93 14.0% 14615 03-28-17 E
129 Cod4Scopes 13.7% 14662 03-28-17 E
130 HyperSonic64 13.6% 14680 03-28-17 E
131 booo95 13.5% 14703 03-28-17 E
132 Jerzia 13.4% 14711 03-28-17 E
133 paulie9990 13.2% 14742 03-28-17 E
134 Chawkk 13.2% 14746 03-28-17 E
135 SuperSonic101 13.0% 14775 03-28-17 E
136 Hunters13 13.0% 14777 03-28-17 E
137 Maxinfamily 12.9% 14799 03-28-17 E
138 Kanimayo_Jp 12.6% 14849 03-28-17 E
139 LilZero 12.6% 14859 03-28-17 E
140 BrokenArthritis 12.5% 14870 03-28-17 E
141 PsyBorg 12.4% 14877 03-28-17 E
142 Flying Fox 12.4% 14888 03-28-17 E
143 Therio 12.1% 14943 03-28-17 E
144 sonicspeed 11.8% 14985 03-28-17 E
145 douglas 11.7% 15000 03-28-17 E
146 Matt_TY 11.4% 15060 03-28-17 E
147 thewaytodawnnn 11.4% 15062 03-28-17 E
148 Cooljay 10.8% 15151 03-28-17 E
149 SuperBlitzCraig 10.7% 15166 03-28-17 E
150 joecoolgames 10.7% 15175 03-28-17 E
151 SeaWolf 10.7% 15182 03-28-17 E
152 videogamer1014 10.4% 15224 03-28-17 E
153 N 10.3% 15240 03-28-17 E
154 AC-Tygo 10.1% 15268 03-28-17 E
155 welshmoose05 10.1% 15280 03-28-17 E
156 OddCook 9.9% 15312 03-28-17 E
157 TFEC Headshot 9.9% 15313 03-28-17 E
158 crazy1993 9.8% 15326 03-28-17 E
159 Mcshuggets 9.7% 15351 03-28-17 E
160 niscool 9.3% 15405 03-28-17 E
161 imazor017 9.3% 15412 03-28-17 E
162 Mariobutch 9.2% 15424 03-28-17 E
163 nuckrieg 9.2% 15429 03-28-17 E
164 SonicAD 9.1% 15444 03-28-17 E
165 SirTobbii 9.0% 15463 03-28-17 E
166 Shadowthegreat 9.0% 15468 03-28-17 E
167 superjupi 8.9% 15474 03-28-17 E
168 Powerjohn25 8.7% 15514 03-28-17 E
169 sonamyfan666 8.6% 15523 03-28-17 E
170 iarebored 8.6% 15535 03-28-17 E
171 SaviourDC 8.5% 15545 03-28-17 E
172 SonicKnuckles 8.5% 15549 03-28-17 E
173 Werey 8.2% 15591 03-28-17 E
174 adf 8.1% 15608 03-28-17 E
175 Megaman EXE565 7.9% 15648 03-28-17 E
176 ArcticDragon 7.6% 15693 03-28-17 E
177 Platformer 7.5% 15714 03-28-17 E
178 timpkmn89 7.4% 15735 03-28-17 E
179 FocusSight64 7.3% 15748 03-28-17 E
180 Swift Hobo 7.3% 15749 03-28-17 E
181 wheatrich 7.3% 15760 03-28-17 E
182 Rickyman48 7.1% 15781 03-28-17 E
183 KitsuneYamaro 6.9% 15813 03-28-17 E
184 Triseena 6.8% 15845 03-28-17 E
185 SonataSpinDash 6.6% 15864 03-28-17 E
186 slade23 6.5% 15885 03-28-17 E
187 CyberShadow 6.5% 15890 03-28-17 E
188 Starlight Sable 6.5% 15891 03-28-17 E
189 dShadow 6.4% 15899 03-28-17 E
190 Destroyer121121 6.4% 15909 03-28-17 E
191 IsisDazs 6.3% 15922 03-28-17 E
192 BlankTH 6.1% 15955 03-28-17 E
193 Monkeh 6.0% 15981 03-28-17 E
194 Badlex727 5.9% 15983 03-28-17 E
195 Richied 5.8% 16011 03-28-17 E
195 SonicU260 5.8% 16011 03-28-17 E
197 DaDude 5.7% 16028 03-28-17 E
198 Vicklaw 5.6% 16036 03-28-17 E
199 Zip 5.6% 16049 03-28-17 E
200 sonicd5 5.5% 16051 03-28-17 E
201 VeritasDL 5.2% 16113 03-28-17 E
202 ALundstrom10 5.2% 16114 03-28-17 E
203 tal39h 5.2% 16116 03-28-17 E
204 Kirbymon30 5.1% 16130 03-28-17 E
205 soniccoloursunleashed 4.9% 16156 03-28-17 E
206 Drflash55 4.9% 16164 03-28-17 E
207 Bass 4.8% 16181 03-28-17 E
208 neaolas 4.7% 16197 03-28-17 E
209 Yish 4.7% 16201 03-28-17 E
210 zapp 4.6% 16208 03-28-17 E
211 UninspiredUsername 4.6% 16213 03-28-17 E
212 superiorsonic 4.6% 16218 03-28-17 E
213 Sonicsuperstar1 4.5% 16224 03-28-17 E
214 gamefreak1292 4.5% 16234 03-28-17 E
215 Chaos_Overlord 4.2% 16287 03-28-17 E
216 TakaRikka 4.1% 16303 03-28-17 E
217 Valfore 4.0% 16314 03-28-17 E
218 ShinigamiMachine 3.8% 16347 03-28-17 E
219 Regano1000 3.7% 16356 03-28-17 E
220 MK 3.6% 16375 03-28-17 E
221 Ace747 3.6% 16383 03-28-17 E
222 HHNNBBHHN 3.2% 16456 03-28-17 E
222 Illidan 3.2% 16456 03-28-17 E
224 Venick409 3.1% 16463 03-28-17 E
225 Brian_pso 3.1% 16467 03-28-17 E
226 nman36 3.1% 16468 03-28-17 E
226 Sithwarrior26 3.1% 16468 03-28-17 E
228 Egor305 2.9% 16493 03-28-17 E
229 ingx24 2.9% 16494 03-28-17 E
230 TheChaosEmeraIds 2.9% 16501 03-28-17 E
231 SkyBon 2.9% 16503 03-28-17 E
232 Nickson98 2.9% 16504 03-28-17 E
233 dekki1234 2.8% 16511 03-28-17 E
234 Fozer 2.8% 16517 03-28-17 E
235 FSSRandomvids 2.8% 16524 03-28-17 E
236 Colomb_30 2.7% 16528 03-28-17 E
237 Aiko 2.7% 16534 03-28-17 E
238 sonic29887 2.7% 16538 03-28-17 E
239 TheUltraBlur 2.6% 16544 03-28-17 E
240 1stKirbyever 2.6% 16552 03-28-17 E
241 TimTH 2.5% 16561 03-28-17 E
242 JamminX42 2.4% 16578 03-28-17 E
243 Th4tN1nj4Turtl3 2.4% 16589 03-28-17 E
244 Cort_pso 2.3% 16599 03-28-17 E
245 ieatatsonic 2.3% 16606 03-28-17 E
246 Doom-9 2.3% 16608 03-28-17 E
247 Mariosonic15 2.3% 16609 03-28-17 E
248 MStitomix 2.1% 16631 03-28-17 E
249 HermitHelmet 2.1% 16633 03-28-17 E
250 Artie 2.0% 16646 03-28-17 E
251 SuperSonic71087 2.0% 16648 03-28-17 E
252 Got4n 2.0% 16649 03-28-17 E
253 Jose_15 2.0% 16661 03-28-17 E
254 Questionguy555 1.9% 16666 03-28-17 E
255 djmat 1.9% 16678 03-28-17 E
255 SuperSonicfan9595 1.9% 16678 03-28-17 E
257 sonicandamy Player Banned 1.7% 16698 03-28-17 E
258 Paixii 1.7% 16708 03-28-17 E
259 LancexExWx 1.7% 16709 03-28-17 E
260 Heroes_Hater 1.7% 16712 03-28-17 E
261 son1cgu1tar 1.6% 16713 03-28-17 E
262 BallzeH 1.6% 16726 03-28-17 E
263 Mankster101 1.5% 16730 03-28-17 E
264 BecauseWarAnvil 1.5% 16734 03-28-17 E
265 Jamixesa 1.5% 16735 03-28-17 E
266 Crydio 1.5% 16745 03-28-17 E
267 SpiritDragon1995 1.4% 16749 03-28-17 E
268 Shanekilz 1.4% 16751 03-28-17 E
269 ReuelBrony 1.4% 16758 03-28-17 E
270 MarewBFN 1.4% 16763 03-28-17 E
271 stanski 1.3% 16766 03-28-17 E
272 Sonique Hedgehog 1.3% 16770 03-28-17 E
273 p0ker 1.2% 16781 03-28-17 E
274 Blue Infamy 1.2% 16783 03-28-17 E
275 ErrortheCucco 1.2% 16794 03-28-17 E
276 Arthas 1.2% 16796 03-28-17 E
277 Rikum22 1.2% 16797 03-28-17 E
278 sonic1001 1.1% 16805 03-28-17 E
279 WingedInsignia 1.1% 16808 03-28-17 E
280 AJSIV 1.1% 16812 03-28-17 E
280 syco1098 1.1% 16812 03-28-17 E
282 Sonic the Hedgehod16 1.0% 16815 03-28-17 E
283 Calfd 1.0% 16824 03-28-17 E
283 sonicfan9 1.0% 16824 03-28-17 E
285 BlackArmsShadow 0.9% 16835 03-28-17 E
286 themachoman202 0.9% 16836 03-28-17 E
287 shadowblast63 Player Banned 0.9% 16844 03-28-17 E
288 darkstarblaze 0.9% 16845 03-28-17 E
289 Greham Adelphis 0.9% 16846 03-28-17 E
290 Fivavoa 0.9% 16847 03-28-17 E
290 Mr. Jones 0.9% 16847 03-28-17 E
292 Ben1502 0.9% 16848 03-28-17 E
293 MastaToken 0.8% 16849 03-28-17 E
294 arcfx1985 0.8% 16850 03-28-17 E
295 TommyeAsY 0.8% 16851 03-28-17 E
296 ptorflaxendrosis 0.8% 16852 03-28-17 E
297 FlandreScarlet9999vr 0.8% 16857 03-28-17 E
298 Gvozdevik 0.8% 16858 03-28-17 E
299 Knuckles 0.8% 16860 03-28-17 E
299 Zeldocto 0.8% 16860 03-28-17 E
301 BeeAwwb 0.8% 16865 03-28-17 E
302 KaM Mark MaK 0.7% 16866 03-28-17 E
303 ShadouZaHejjihoggu 0.7% 16872 03-28-17 E
304 Sonic62 0.7% 16877 03-28-17 E
305 Sonic The Star 0.7% 16879 03-28-17 E
306 darkersupershadic 0.7% 16880 03-28-17 E
307 Sarger001 0.7% 16882 03-28-17 E
308 dragondragon18 0.6% 16886 03-28-17 E
308 Shadygamerfreak 0.6% 16886 03-28-17 E
308 Sogeking 0.6% 16886 03-28-17 E
311 Grady219 0.6% 16887 03-28-17 E
312 SonicK100 0.6% 16888 03-28-17 E
313 Jawaah 0.6% 16893 03-28-17 E
314 Antek 0.6% 16896 03-28-17 E
315 Klaus 0.6% 16898 03-28-17 E
316 BioShadow 0.5% 16900 03-28-17 E
316 SilverK 0.5% 16900 03-28-17 E
318 SpinDashMaster 0.5% 16906 03-28-17 E
319 Videogamer123 0.5% 16908 03-28-17 E
320 oTaiIilLsS 0.4% 16922 03-28-17 E
321 isaihtb11 0.4% 16924 03-28-17 E
322 OhNoes! 0.4% 16926 03-28-17 E
322 zaktu40 0.4% 16926 03-28-17 E
324 gaara1234 0.4% 16929 03-28-17 E
324 S-MS32X-S 0.4% 16929 03-28-17 E
326 Mad Andy 0.4% 16930 03-28-17 E
327 gamed00d 0.4% 16933 03-28-17 E
328 Mister_Slick 0.3% 16941 03-28-17 E
329 Sonic06Fan 0.3% 16944 03-28-17 E
330 Rush Hero 0.3% 16945 03-28-17 E
331 SonicMega167 0.3% 16950 03-28-17 E
332 Iwannabelink 0.2% 16953 03-28-17 E
333 sonknuck23 0.2% 16954 03-28-17 E
334 DanielTheFalcon 0.2% 16965 03-28-17 E
334 gamer1245 0.2% 16965 03-28-17 E
336 Burningskull123 0.1% 16969 03-28-17 E
337 Sonicontherun 0.1% 16980 03-28-17 E
338 Lil_Dude 0.0% 16985 03-28-17 E
339 antiwwe 0.0% 16986 03-28-17 E
340 Genuine Hedgehog 0.0% 16991 03-28-17 E
341 Cbwade15 0.0% 16992 03-28-17 E
342 Tyrouble 0.0% 16995 03-28-17 E
343 MegabombBlade 0.0% 17002 03-28-17 E
343 neji_hyuuga 0.0% 17002 03-28-17 E
343 Over 0.0% 17002 03-28-17 E
343 sdj6707 Player Banned 0.0% 17002 03-28-17 E
343 Tran Sonic Fan Player Banned 0.0% 17002 03-28-17 E

This page is using the New Data Table System. [FUTURE]


-- Back to Normal Skin --
Game ID: 3 | Category ID: 10
Hits: 68,940 | Hits This Month: 248 | DB Calls: 16 | Mem Usage: 5.48 MB | Time: 0.13s | Printable

The Sonic Center v3.9
Copyright 2003-2011 by The Sonic Center Team.